sensor_id;sensor_type;location;lat;lon;timestamp;temperature;humidity
11474;DHT22;5793;52.238;13.438;2023-09-07T15:30:27;27.40;74.10
11474;DHT22;5793;52.238;13.438;2023-09-07T15:32:54;27.10;71.90
11474;DHT22;5793;52.238;13.438;2023-09-07T15:35:23;27.10;70.30
11474;DHT22;5793;52.238;13.438;2023-09-07T15:37:51;27.10;72.20
11474;DHT22;5793;52.238;13.438;2023-09-07T15:40:19;27.20;73.00
11474;DHT22;5793;52.238;13.438;2023-09-07T15:42:47;27.10;74.70
11474;DHT22;5793;52.238;13.438;2023-09-07T15:45:15;27.00;75.10
11474;DHT22;5793;52.238;13.438;2023-09-07T15:47:44;27.00;74.10
11474;DHT22;5793;52.238;13.438;2023-09-07T15:50:14;26.90;75.00
11474;DHT22;5793;52.238;13.438;2023-09-07T15:52:45;26.90;75.60
11474;DHT22;5793;52.238;13.438;2023-09-07T15:55:14;26.90;76.00
11474;DHT22;5793;52.238;13.438;2023-09-07T15:57:43;26.80;76.20
11474;DHT22;5793;52.238;13.438;2023-09-07T16:00:14;26.70;74.30
11474;DHT22;5793;52.238;13.438;2023-09-07T16:02:44;26.80;76.60
11474;DHT22;5793;52.238;13.438;2023-09-07T16:05:12;26.80;78.10
11474;DHT22;5793;52.238;13.438;2023-09-07T16:07:40;26.80;78.40
11474;DHT22;5793;52.238;13.438;2023-09-07T16:10:08;26.70;78.30
11474;DHT22;5793;52.238;13.438;2023-09-07T16:12:39;26.60;77.90
11474;DHT22;5793;52.238;13.438;2023-09-07T16:15:08;26.50;77.00
11474;DHT22;5793;52.238;13.438;2023-09-07T16:17:36;26.60;78.10
11474;DHT22;5793;52.238;13.438;2023-09-07T16:20:07;26.50;78.40
11474;DHT22;5793;52.238;13.438;2023-09-07T16:22:35;26.40;79.50
11474;DHT22;5793;52.238;13.438;2023-09-07T16:25:03;26.30;80.30
11474;DHT22;5793;52.238;13.438;2023-09-07T16:27:31;26.30;79.80
11474;DHT22;5793;52.238;13.438;2023-09-07T16:30:05;26.20;83.40
11474;DHT22;5793;52.238;13.438;2023-09-07T16:32:33;26.00;82.10
11474;DHT22;5793;52.238;13.438;2023-09-07T16:35:01;26.00;83.20
11474;DHT22;5793;52.238;13.438;2023-09-07T16:37:31;25.80;81.30
11474;DHT22;5793;52.238;13.438;2023-09-07T16:39:59;25.80;84.30
11474;DHT22;5793;52.238;13.438;2023-09-07T16:42:27;25.70;83.50
11474;DHT22;5793;52.238;13.438;2023-09-07T16:44:54;25.70;84.90
11474;DHT22;5793;52.238;13.438;2023-09-07T16:47:22;25.50;85.10
11474;DHT22;5793;52.238;13.438;2023-09-07T16:49:50;25.50;86.00
11474;DHT22;5793;52.238;13.438;2023-09-07T16:53:33;25.30;87.00
11474;DHT22;5793;52.238;13.438;2023-09-07T16:56:01;25.20;88.50
11474;DHT22;5793;52.238;13.438;2023-09-07T16:58:29;25.10;90.40
11474;DHT22;5793;52.238;13.438;2023-09-07T17:01:03;24.90;90.90
11474;DHT22;5793;52.238;13.438;2023-09-07T17:03:31;24.80;92.10
11474;DHT22;5793;52.238;13.438;2023-09-07T17:05:59;24.70;92.90
11474;DHT22;5793;52.238;13.438;2023-09-07T17:08:27;24.60;94.10
11474;DHT22;5793;52.238;13.438;2023-09-07T17:10:58;24.40;94.90
11474;DHT22;5793;52.238;13.438;2023-09-07T17:13:26;24.30;95.80
11474;DHT22;5793;52.238;13.438;2023-09-07T17:15:54;24.20;97.20
11474;DHT22;5793;52.238;13.438;2023-09-07T17:18:21;24.10;98.00
11474;DHT22;5793;52.238;13.438;2023-09-07T17:20:49;23.90;99.80
11474;DHT22;5793;52.238;13.438;2023-09-07T17:23:17;23.80;99.90
11474;DHT22;5793;52.238;13.438;2023-09-07T17:25:45;23.70;99.90
11474;DHT22;5793;52.238;13.438;2023-09-07T17:28:14;23.60;99.90
11474;DHT22;5793;52.238;13.438;2023-09-07T17:30:42;23.50;99.90
11474;DHT22;5793;52.238;13.438;2023-09-07T17:33:10;23.40;99.90
11474;DHT22;5793;52.238;13.438;2023-09-07T17:35:38;23.10;99.90
11474;DHT22;5793;52.238;13.438;2023-09-07T17:38:06;23.00;99.90
11474;DHT22;5793;52.238;13.438;2023-09-07T17:40:34;22.90;99.90
11474;DHT22;5793;52.238;13.438;2023-09-07T17:43:03;22.70;99.90
11474;DHT22;5793;52.238;13.438;2023-09-07T17:45:32;22.70;99.90
11474;DHT22;5793;52.238;13.438;2023-09-07T17:48:00;22.50;99.90
11474;DHT22;5793;52.238;13.438;2023-09-07T17:50:28;22.30;99.90
11474;DHT22;5793;52.238;13.438;2023-09-07T17:52:56;22.20;99.90
11474;DHT22;5793;52.238;13.438;2023-09-07T17:55:25;22.10;99.90
11474;DHT22;5793;52.238;13.438;2023-09-07T17:57:53;22.00;99.90
11474;DHT22;5793;52.238;13.438;2023-09-07T18:00:21;22.00;99.90
11474;DHT22;5793;52.238;13.438;2023-09-07T18:02:58;21.70;99.90
11474;DHT22;5793;52.238;13.438;2023-09-07T18:05:26;21.70;99.90
11474;DHT22;5793;52.238;13.438;2023-09-07T18:07:54;21.60;99.90
11474;DHT22;5793;52.238;13.438;2023-09-07T18:10:22;21.50;99.90
11474;DHT22;5793;52.238;13.438;2023-09-07T18:12:50;21.30;99.90
11474;DHT22;5793;52.238;13.438;2023-09-07T18:15:18;21.30;99.90
11474;DHT22;5793;52.238;13.438;2023-09-07T18:17:46;21.30;99.90
11474;DHT22;5793;52.238;13.438;2023-09-07T18:20:15;21.10;99.90
11474;DHT22;5793;52.238;13.438;2023-09-07T18:22:45;21.10;99.90
11474;DHT22;5793;52.238;13.438;2023-09-07T18:25:13;20.90;99.90
11474;DHT22;5793;52.238;13.438;2023-09-07T18:27:41;20.80;99.90
11474;DHT22;5793;52.238;13.438;2023-09-07T18:30:09;20.70;99.90
11474;DHT22;5793;52.238;13.438;2023-09-07T18:32:37;20.70;99.90
11474;DHT22;5793;52.238;13.438;2023-09-07T18:35:06;20.60;99.90
11474;DHT22;5793;52.238;13.438;2023-09-07T18:37:35;20.60;99.90
11474;DHT22;5793;52.238;13.438;2023-09-07T18:40:06;20.50;99.90
11474;DHT22;5793;52.238;13.438;2023-09-07T18:42:35;20.30;99.90
11474;DHT22;5793;52.238;13.438;2023-09-07T18:45:04;20.20;99.90
11474;DHT22;5793;52.238;13.438;2023-09-07T18:47:33;20.10;99.90
11474;DHT22;5793;52.238;13.438;2023-09-07T18:50:02;20.00;99.90
11474;DHT22;5793;52.238;13.438;2023-09-07T18:52:30;20.00;99.90
11474;DHT22;5793;52.238;13.438;2023-09-07T18:54:59;19.90;99.90
11474;DHT22;5793;52.238;13.438;2023-09-07T18:57:27;19.80;99.90
11474;DHT22;5793;52.238;13.438;2023-09-07T18:59:55;19.80;99.90
11474;DHT22;5793;52.238;13.438;2023-09-07T19:02:23;19.80;99.90
11474;DHT22;5793;52.238;13.438;2023-09-07T19:04:51;19.70;99.90
11474;DHT22;5793;52.238;13.438;2023-09-07T19:07:18;19.60;99.90
11474;DHT22;5793;52.238;13.438;2023-09-07T19:09:48;19.40;99.90
11474;DHT22;5793;52.238;13.438;2023-09-07T19:12:17;19.20;99.90
11474;DHT22;5793;52.238;13.438;2023-09-07T19:14:45;19.20;99.90
11474;DHT22;5793;52.238;13.438;2023-09-07T19:17:13;19.20;99.90
11474;DHT22;5793;52.238;13.438;2023-09-07T19:19:40;19.30;99.90
11474;DHT22;5793;52.238;13.438;2023-09-07T19:22:08;19.30;99.90
11474;DHT22;5793;52.238;13.438;2023-09-07T19:24:36;19.30;99.90
11474;DHT22;5793;52.238;13.438;2023-09-07T19:27:04;19.10;99.90
11474;DHT22;5793;52.238;13.438;2023-09-07T19:29:34;19.10;99.90
11474;DHT22;5793;52.238;13.438;2023-09-07T19:32:02;18.90;99.90
11474;DHT22;5793;52.238;13.438;2023-09-07T19:34:30;18.70;99.90
11474;DHT22;5793;52.238;13.438;2023-09-07T19:36:57;18.80;99.90
11474;DHT22;5793;52.238;13.438;2023-09-07T19:39:25;18.80;99.90
11474;DHT22;5793;52.238;13.438;2023-09-07T19:41:53;18.90;99.90
11474;DHT22;5793;52.238;13.438;2023-09-07T19:44:23;18.90;99.90
11474;DHT22;5793;52.238;13.438;2023-09-07T19:46:52;18.90;99.90
11474;DHT22;5793;52.238;13.438;2023-09-07T19:49:22;18.80;99.90
11474;DHT22;5793;52.238;13.438;2023-09-07T19:51:50;18.80;99.90
11474;DHT22;5793;52.238;13.438;2023-09-07T19:54:18;18.90;99.90
11474;DHT22;5793;52.238;13.438;2023-09-07T19:56:46;18.80;99.90
11474;DHT22;5793;52.238;13.438;2023-09-07T19:59:14;18.80;99.90
11474;DHT22;5793;52.238;13.438;2023-09-07T20:01:54;18.70;99.90
11474;DHT22;5793;52.238;13.438;2023-09-07T20:04:23;18.50;99.90
11474;DHT22;5793;52.238;13.438;2023-09-07T20:06:52;18.60;99.90
11474;DHT22;5793;52.238;13.438;2023-09-07T20:09:21;18.60;99.90
11474;DHT22;5793;52.238;13.438;2023-09-07T20:11:51;18.60;99.90
11474;DHT22;5793;52.238;13.438;2023-09-07T20:14:20;18.50;99.90
11474;DHT22;5793;52.238;13.438;2023-09-07T20:16:47;18.50;99.90
11474;DHT22;5793;52.238;13.438;2023-09-07T20:19:17;18.40;99.90
11474;DHT22;5793;52.238;13.438;2023-09-07T20:21:45;18.40;99.90
11474;DHT22;5793;52.238;13.438;2023-09-07T20:24:13;18.20;99.90
11474;DHT22;5793;52.238;13.438;2023-09-07T20:26:41;18.10;99.90
11474;DHT22;5793;52.238;13.438;2023-09-07T20:29:09;17.90;99.90
11474;DHT22;5793;52.238;13.438;2023-09-07T20:31:37;17.80;99.90
11474;DHT22;5793;52.238;13.438;2023-09-07T20:34:04;17.80;99.90
11474;DHT22;5793;52.238;13.438;2023-09-07T20:36:34;17.70;99.90
11474;DHT22;5793;52.238;13.438;2023-09-07T20:39:01;17.70;99.90
11474;DHT22;5793;52.238;13.438;2023-09-07T20:41:32;17.80;99.90
11474;DHT22;5793;52.238;13.438;2023-09-07T20:44:00;17.80;99.90
11474;DHT22;5793;52.238;13.438;2023-09-07T20:46:27;17.80;99.90
11474;DHT22;5793;52.238;13.438;2023-09-07T20:48:55;17.80;99.90
11474;DHT22;5793;52.238;13.438;2023-09-07T20:51:23;17.70;99.90
11474;DHT22;5793;52.238;13.438;2023-09-07T20:53:52;17.70;99.90
11474;DHT22;5793;52.238;13.438;2023-09-07T20:56:20;17.70;99.90
11474;DHT22;5793;52.238;13.438;2023-09-07T20:58:48;17.70;99.90
11474;DHT22;5793;52.238;13.438;2023-09-07T21:01:16;17.70;99.90
11474;DHT22;5793;52.238;13.438;2023-09-07T21:03:44;17.70;99.90
11474;DHT22;5793;52.238;13.438;2023-09-07T21:06:12;17.60;99.90
11474;DHT22;5793;52.238;13.438;2023-09-07T21:08:40;17.60;99.90
11474;DHT22;5793;52.238;13.438;2023-09-07T21:11:10;17.50;99.90
11474;DHT22;5793;52.238;13.438;2023-09-07T21:13:37;17.40;99.90
11474;DHT22;5793;52.238;13.438;2023-09-07T21:16:05;17.40;99.90
11474;DHT22;5793;52.238;13.438;2023-09-07T21:18:33;17.40;99.90
11474;DHT22;5793;52.238;13.438;2023-09-07T21:21:02;17.30;99.90
11474;DHT22;5793;52.238;13.438;2023-09-07T21:23:29;17.30;99.90
11474;DHT22;5793;52.238;13.438;2023-09-07T21:25:57;17.20;99.90
11474;DHT22;5793;52.238;13.438;2023-09-07T21:28:26;17.20;99.90
11474;DHT22;5793;52.238;13.438;2023-09-07T21:30:54;17.20;99.90
11474;DHT22;5793;52.238;13.438;2023-09-07T21:33:22;17.20;99.90
11474;DHT22;5793;52.238;13.438;2023-09-07T21:35:50;17.20;99.90
11474;DHT22;5793;52.238;13.438;2023-09-07T21:38:18;17.10;99.90
11474;DHT22;5793;52.238;13.438;2023-09-07T21:40:49;17.10;99.90
11474;DHT22;5793;52.238;13.438;2023-09-07T21:43:18;17.00;99.90
11474;DHT22;5793;52.238;13.438;2023-09-07T21:45:47;17.00;99.90
11474;DHT22;5793;52.238;13.438;2023-09-07T21:48:15;17.00;99.90
11474;DHT22;5793;52.238;13.438;2023-09-07T21:50:43;17.00;99.90
11474;DHT22;5793;52.238;13.438;2023-09-07T21:53:11;17.00;99.90
11474;DHT22;5793;52.238;13.438;2023-09-07T21:55:39;16.90;99.90
11474;DHT22;5793;52.238;13.438;2023-09-07T21:58:06;16.90;99.90
11474;DHT22;5793;52.238;13.438;2023-09-07T22:00:34;16.90;99.90
11474;DHT22;5793;52.238;13.438;2023-09-07T22:03:04;16.80;99.90
11474;DHT22;5793;52.238;13.438;2023-09-07T22:05:32;16.70;99.90
11474;DHT22;5793;52.238;13.438;2023-09-07T22:08:00;16.70;99.90
11474;DHT22;5793;52.238;13.438;2023-09-07T22:10:28;16.70;99.90
11474;DHT22;5793;52.238;13.438;2023-09-07T22:12:55;16.70;99.90
11474;DHT22;5793;52.238;13.438;2023-09-07T22:15:26;16.60;99.90
11474;DHT22;5793;52.238;13.438;2023-09-07T22:17:53;16.60;99.90
11474;DHT22;5793;52.238;13.438;2023-09-07T22:20:23;16.50;99.90
11474;DHT22;5793;52.238;13.438;2023-09-07T22:22:51;16.50;99.90
11474;DHT22;5793;52.238;13.438;2023-09-07T22:25:19;16.40;99.90
11474;DHT22;5793;52.238;13.438;2023-09-07T22:27:46;16.40;99.90
11474;DHT22;5793;52.238;13.438;2023-09-07T22:30:14;16.40;99.90
11474;DHT22;5793;52.238;13.438;2023-09-07T22:32:42;16.30;99.90
11474;DHT22;5793;52.238;13.438;2023-09-07T22:35:10;16.30;99.90
11474;DHT22;5793;52.238;13.438;2023-09-07T22:37:40;16.30;99.90
11474;DHT22;5793;52.238;13.438;2023-09-07T22:40:08;16.30;99.90
11474;DHT22;5793;52.238;13.438;2023-09-07T22:42:42;16.30;99.90
11474;DHT22;5793;52.238;13.438;2023-09-07T22:45:10;16.30;99.90
11474;DHT22;5793;52.238;13.438;2023-09-07T22:47:39;16.20;99.90
11474;DHT22;5793;52.238;13.438;2023-09-07T22:50:07;16.20;99.90
11474;DHT22;5793;52.238;13.438;2023-09-07T22:52:35;16.20;99.90
11474;DHT22;5793;52.238;13.438;2023-09-07T22:55:06;16.20;99.90
11474;DHT22;5793;52.238;13.438;2023-09-07T22:57:35;16.20;99.90
11474;DHT22;5793;52.238;13.438;2023-09-07T23:00:04;16.20;99.90
11474;DHT22;5793;52.238;13.438;2023-09-07T23:02:33;16.20;99.90
11474;DHT22;5793;52.238;13.438;2023-09-07T23:05:01;16.20;99.90
11474;DHT22;5793;52.238;13.438;2023-09-07T23:07:30;16.20;99.90
11474;DHT22;5793;52.238;13.438;2023-09-07T23:09:58;16.20;99.90
11474;DHT22;5793;52.238;13.438;2023-09-07T23:12:29;16.10;99.90
11474;DHT22;5793;52.238;13.438;2023-09-07T23:14:57;16.10;99.90
11474;DHT22;5793;52.238;13.438;2023-09-07T23:17:25;16.10;99.90
11474;DHT22;5793;52.238;13.438;2023-09-07T23:19:53;16.10;99.90
11474;DHT22;5793;52.238;13.438;2023-09-07T23:22:20;16.00;99.90
11474;DHT22;5793;52.238;13.438;2023-09-07T23:24:48;15.90;99.90
11474;DHT22;5793;52.238;13.438;2023-09-07T23:27:16;15.90;99.90
11474;DHT22;5793;52.238;13.438;2023-09-07T23:29:47;16.00;99.90
11474;DHT22;5793;52.238;13.438;2023-09-07T23:32:15;16.00;99.90
11474;DHT22;5793;52.238;13.438;2023-09-07T23:34:43;16.00;99.90
11474;DHT22;5793;52.238;13.438;2023-09-07T23:37:11;15.90;99.90
11474;DHT22;5793;52.238;13.438;2023-09-07T23:39:38;16.00;99.90
11474;DHT22;5793;52.238;13.438;2023-09-07T23:42:06;16.00;99.90
11474;DHT22;5793;52.238;13.438;2023-09-07T23:44:34;16.00;99.90
11474;DHT22;5793;52.238;13.438;2023-09-07T23:47:05;16.00;99.90
11474;DHT22;5793;52.238;13.438;2023-09-07T23:49:33;15.90;99.90
11474;DHT22;5793;52.238;13.438;2023-09-07T23:52:00;15.80;99.90
11474;DHT22;5793;52.238;13.438;2023-09-07T23:54:28;15.70;99.90
11474;DHT22;5793;52.238;13.438;2023-09-07T23:56:56;15.70;99.90
11474;DHT22;5793;52.238;13.438;2023-09-07T23:59:24;15.70;99.90
